sensor_id;sensor_type;location;lat;lon;timestamp;pressure;altitude;pressure_sealevel;temperature;humidity
49759;BME280;35654;46.080;11.118;2022-11-21T00:00:48;98904.72;;;4.48;76.18
49759;BME280;35654;46.080;11.118;2022-11-21T00:03:13;98895.72;;;4.37;75.48
49759;BME280;35654;46.080;11.118;2022-11-21T00:05:41;98890.03;;;4.34;76.79
49759;BME280;35654;46.080;11.118;2022-11-21T00:08:08;98894.69;;;4.43;76.35
49759;BME280;35654;46.080;11.118;2022-11-21T00:10:35;98885.19;;;4.51;76.06
49759;BME280;35654;46.080;11.118;2022-11-21T00:13:00;98870.56;;;4.52;75.01
49759;BME280;35654;46.080;11.118;2022-11-21T00:15:26;98871.63;;;4.46;75.35
49759;BME280;35654;46.080;11.118;2022-11-21T00:17:51;98867.28;;;4.35;77.33
49759;BME280;35654;46.080;11.118;2022-11-21T00:20:19;98880.00;;;4.34;77.47
49759;BME280;35654;46.080;11.118;2022-11-21T00:22:45;98874.06;;;4.42;76.45
49759;BME280;35654;46.080;11.118;2022-11-21T00:25:10;98875.44;;;4.50;74.86
49759;BME280;35654;46.080;11.118;2022-11-21T00:27:35;98867.28;;;4.50;74.88
49759;BME280;35654;46.080;11.118;2022-11-21T00:30:01;98862.69;;;4.40;76.39
49759;BME280;35654;46.080;11.118;2022-11-21T00:32:26;98860.75;;;4.31;76.39
49759;BME280;35654;46.080;11.118;2022-11-21T00:34:52;98859.66;;;4.32;76.33
49759;BME280;35654;46.080;11.118;2022-11-21T00:37:17;98860.75;;;4.31;76.62
49759;BME280;35654;46.080;11.118;2022-11-21T00:39:42;98867.50;;;4.23;76.66
49759;BME280;35654;46.080;11.118;2022-11-21T00:42:08;98875.63;;;4.18;77.45
49759;BME280;35654;46.080;11.118;2022-11-21T00:44:33;98869.09;;;4.14;78.40
49759;BME280;35654;46.080;11.118;2022-11-21T00:46:59;98874.50;;;4.09;78.54
49759;BME280;35654;46.080;11.118;2022-11-21T00:49:24;98882.31;;;4.05;78.79
49759;BME280;35654;46.080;11.118;2022-11-21T00:51:49;98877.44;;;4.02;78.63
49759;BME280;35654;46.080;11.118;2022-11-21T00:54:15;98876.06;;;4.00;78.67
49759;BME280;35654;46.080;11.118;2022-11-21T00:56:40;98876.34;;;3.93;78.95
49759;BME280;35654;46.080;11.118;2022-11-21T00:59:05;98881.19;;;3.91;79.67
49759;BME280;35654;46.080;11.118;2022-11-21T01:01:31;98867.09;;;3.89;79.15
49759;BME280;35654;46.080;11.118;2022-11-21T01:03:57;98875.44;;;3.83;78.92
49759;BME280;35654;46.080;11.118;2022-11-21T01:06:23;98872.72;;;3.78;79.65
49759;BME280;35654;46.080;11.118;2022-11-21T01:08:48;98870.22;;;3.66;80.38
49759;BME280;35654;46.080;11.118;2022-11-21T01:11:16;98869.09;;;3.57;81.84
49759;BME280;35654;46.080;11.118;2022-11-21T01:13:42;98864.75;;;3.56;81.94
49759;BME280;35654;46.080;11.118;2022-11-21T01:16:16;98868.25;;;3.51;82.49
49759;BME280;35654;46.080;11.118;2022-11-21T01:18:43;98869.81;;;3.42;82.38
49759;BME280;35654;46.080;11.118;2022-11-21T01:21:27;98865.72;;;3.40;82.34
49759;BME280;35654;46.080;11.118;2022-11-21T01:23:53;98866.59;;;3.45;80.56
49759;BME280;35654;46.080;11.118;2022-11-21T01:26:24;98861.38;;;3.39;81.12
49759;BME280;35654;46.080;11.118;2022-11-21T01:28:49;98858.91;;;3.32;82.21
49759;BME280;35654;46.080;11.118;2022-11-21T01:31:21;98860.50;;;3.28;82.45
49759;BME280;35654;46.080;11.118;2022-11-21T01:33:47;98867.00;;;3.32;82.83
49759;BME280;35654;46.080;11.118;2022-11-21T01:36:18;98865.94;;;3.33;82.83
49759;BME280;35654;46.080;11.118;2022-11-21T01:38:46;98876.22;;;3.31;82.54
49759;BME280;35654;46.080;11.118;2022-11-21T01:41:16;98877.59;;;3.34;82.74
49759;BME280;35654;46.080;11.118;2022-11-21T01:43:42;98879.47;;;3.33;82.70
49759;BME280;35654;46.080;11.118;2022-11-21T01:56:44;98877.28;;;3.30;82.25
49759;BME280;35654;46.080;11.118;2022-11-21T01:59:17;98876.47;;;3.30;82.52
49759;BME280;35654;46.080;11.118;2022-11-21T02:01:45;98871.56;;;3.27;82.11
49759;BME280;35654;46.080;11.118;2022-11-21T02:04:11;98876.44;;;3.25;82.00
49759;BME280;35654;46.080;11.118;2022-11-21T02:06:36;98890.78;;;3.25;82.40
49759;BME280;35654;46.080;11.118;2022-11-21T02:09:02;98887.53;;;3.23;82.67
49759;BME280;35654;46.080;11.118;2022-11-21T02:11:29;98880.88;;;3.04;82.68
49759;BME280;35654;46.080;11.118;2022-11-21T02:13:56;98882.78;;;3.04;82.89
49759;BME280;35654;46.080;11.118;2022-11-21T02:16:22;98883.31;;;3.06;82.94
49759;BME280;35654;46.080;11.118;2022-11-21T02:18:48;98891.72;;;3.04;82.77
49759;BME280;35654;46.080;11.118;2022-11-21T02:21:27;98894.41;;;3.04;83.73
49759;BME280;35654;46.080;11.118;2022-11-21T02:24:03;98896.84;;;3.06;83.14
49759;BME280;35654;46.080;11.118;2022-11-21T02:26:33;98900.38;;;3.06;82.57
49759;BME280;35654;46.080;11.118;2022-11-21T02:28:59;98900.38;;;3.06;82.32
49759;BME280;35654;46.080;11.118;2022-11-21T02:31:25;98903.31;;;3.05;82.51
49759;BME280;35654;46.080;11.118;2022-11-21T02:33:50;98903.31;;;3.05;82.54
49759;BME280;35654;46.080;11.118;2022-11-21T02:36:41;98890.53;;;2.95;83.03
49759;BME280;35654;46.080;11.118;2022-11-21T02:39:10;98890.50;;;2.90;82.56
49759;BME280;35654;46.080;11.118;2022-11-21T02:41:44;98885.81;;;2.80;83.41
49759;BME280;35654;46.080;11.118;2022-11-21T02:44:30;98880.03;;;2.72;84.87
49759;BME280;35654;46.080;11.118;2022-11-21T02:46:56;98878.06;;;2.62;85.57
49759;BME280;35654;46.080;11.118;2022-11-21T02:49:38;98882.75;;;2.72;85.37
49759;BME280;35654;46.080;11.118;2022-11-21T02:52:05;98876.88;;;2.80;84.92
49759;BME280;35654;46.080;11.118;2022-11-21T02:54:30;98873.94;;;2.81;84.76
49759;BME280;35654;46.080;11.118;2022-11-21T02:56:56;98876.69;;;2.86;84.76
49759;BME280;35654;46.080;11.118;2022-11-21T02:59:21;98866.97;;;2.90;84.62
49759;BME280;35654;46.080;11.118;2022-11-21T03:01:47;98859.16;;;2.94;84.88
49759;BME280;35654;46.080;11.118;2022-11-21T03:04:13;98867.81;;;2.96;85.13
49759;BME280;35654;46.080;11.118;2022-11-21T03:06:38;98859.16;;;2.94;85.37
49759;BME280;35654;46.080;11.118;2022-11-21T03:09:03;98850.22;;;2.93;85.23
49759;BME280;35654;46.080;11.118;2022-11-21T03:11:29;98850.19;;;2.88;84.75
49759;BME280;35654;46.080;11.118;2022-11-21T03:13:54;98853.91;;;2.82;85.15
49759;BME280;35654;46.080;11.118;2022-11-21T03:16:20;98852.53;;;2.80;85.38
49759;BME280;35654;46.080;11.118;2022-11-21T03:18:45;98847.66;;;2.77;85.91
49759;BME280;35654;46.080;11.118;2022-11-21T03:21:10;98859.56;;;2.76;86.16
49759;BME280;35654;46.080;11.118;2022-11-21T03:23:36;98869.28;;;2.77;86.04
49759;BME280;35654;46.080;11.118;2022-11-21T03:26:01;98864.13;;;2.75;85.91
49759;BME280;35654;46.080;11.118;2022-11-21T03:28:26;98864.84;;;2.66;86.01
49759;BME280;35654;46.080;11.118;2022-11-21T03:30:52;98868.69;;;2.70;86.24
49759;BME280;35654;46.080;11.118;2022-11-21T03:33:17;98866.84;;;2.75;86.13
49759;BME280;35654;46.080;11.118;2022-11-21T03:35:43;98869.34;;;2.82;85.88
49759;BME280;35654;46.080;11.118;2022-11-21T03:38:08;98879.09;;;2.88;85.39
49759;BME280;35654;46.080;11.118;2022-11-21T03:40:33;98887.28;;;2.93;85.35
49759;BME280;35654;46.080;11.118;2022-11-21T03:43:05;98881.34;;;2.96;84.49
49759;BME280;35654;46.080;11.118;2022-11-21T03:45:30;98886.22;;;2.99;83.98
49759;BME280;35654;46.080;11.118;2022-11-21T03:47:56;98881.09;;;2.98;84.23
49759;BME280;35654;46.080;11.118;2022-11-21T03:50:21;98884.59;;;2.93;84.28
49759;BME280;35654;46.080;11.118;2022-11-21T03:52:47;98890.50;;;2.90;84.27
49759;BME280;35654;46.080;11.118;2022-11-21T03:55:12;98884.78;;;2.86;84.39
49759;BME280;35654;46.080;11.118;2022-11-21T03:57:38;98879.06;;;2.83;84.63
49759;BME280;35654;46.080;11.118;2022-11-21T04:00:03;98869.59;;;2.80;84.25
49759;BME280;35654;46.080;11.118;2022-11-21T04:02:29;98871.16;;;2.76;84.39
49759;BME280;35654;46.080;11.118;2022-11-21T04:04:54;98876.53;;;2.71;84.78
49759;BME280;35654;46.080;11.118;2022-11-21T04:07:19;98881.84;;;2.61;85.16
49759;BME280;35654;46.080;11.118;2022-11-21T04:09:45;98877.22;;;2.57;84.96
49759;BME280;35654;46.080;11.118;2022-11-21T04:12:10;98879.03;;;2.51;86.03
49759;BME280;35654;46.080;11.118;2022-11-21T04:14:35;98878.19;;;2.46;85.91
49759;BME280;35654;46.080;11.118;2022-11-21T04:17:01;98878.69;;;2.43;86.43
49759;BME280;35654;46.080;11.118;2022-11-21T04:19:26;98867.28;;;2.41;86.90
49759;BME280;35654;46.080;11.118;2022-11-21T04:21:52;98877.31;;;2.40;87.25
49759;BME280;35654;46.080;11.118;2022-11-21T04:24:17;98883.78;;;2.39;87.24
49759;BME280;35654;46.080;11.118;2022-11-21T04:26:42;98878.59;;;2.38;87.05
49759;BME280;35654;46.080;11.118;2022-11-21T04:29:08;98872.59;;;2.30;86.18
49759;BME280;35654;46.080;11.118;2022-11-21T04:31:33;98873.59;;;2.24;86.32
49759;BME280;35654;46.080;11.118;2022-11-21T04:33:58;98884.69;;;2.23;86.32
49759;BME280;35654;46.080;11.118;2022-11-21T04:36:24;98878.19;;;2.24;85.86
49759;BME280;35654;46.080;11.118;2022-11-21T04:38:49;98868.75;;;2.26;85.73
49759;BME280;35654;46.080;11.118;2022-11-21T04:41:14;98877.44;;;2.28;85.33
49759;BME280;35654;46.080;11.118;2022-11-21T04:43:40;98877.19;;;2.30;85.45
49759;BME280;35654;46.080;11.118;2022-11-21T04:46:05;98881.22;;;2.27;85.73
49759;BME280;35654;46.080;11.118;2022-11-21T04:48:30;98883.34;;;2.25;85.49
49759;BME280;35654;46.080;11.118;2022-11-21T04:50:56;98887.06;;;2.19;86.43
49759;BME280;35654;46.080;11.118;2022-11-21T04:53:22;98897.88;;;2.19;86.54
49759;BME280;35654;46.080;11.118;2022-11-21T04:55:47;98891.25;;;2.10;85.99
49759;BME280;35654;46.080;11.118;2022-11-21T04:58:12;98889.00;;;2.02;86.21
49759;BME280;35654;46.080;11.118;2022-11-21T05:00:38;98885.50;;;2.02;86.64
49759;BME280;35654;46.080;11.118;2022-11-21T05:03:04;98874.31;;;1.93;86.56
49759;BME280;35654;46.080;11.118;2022-11-21T05:05:30;98873.25;;;1.94;86.80
49759;BME280;35654;46.080;11.118;2022-11-21T05:07:55;98864.00;;;1.90;87.16
49759;BME280;35654;46.080;11.118;2022-11-21T05:10:21;98861.00;;;1.87;87.95
49759;BME280;35654;46.080;11.118;2022-11-21T05:12:46;98848.31;;;1.87;88.03
49759;BME280;35654;46.080;11.118;2022-11-21T05:15:30;98841.91;;;1.93;87.99
49759;BME280;35654;46.080;11.118;2022-11-21T05:17:58;98843.38;;;2.01;87.43
49759;BME280;35654;46.080;11.118;2022-11-21T05:20:24;98833.19;;;2.08;87.60
49759;BME280;35654;46.080;11.118;2022-11-21T05:22:52;98842.41;;;2.12;87.22
49759;BME280;35654;46.080;11.118;2022-11-21T05:25:18;98845.91;;;2.12;86.80
49759;BME280;35654;46.080;11.118;2022-11-21T05:27:43;98834.56;;;2.10;86.90
49759;BME280;35654;46.080;11.118;2022-11-21T05:30:10;98833.50;;;2.11;87.13
49759;BME280;35654;46.080;11.118;2022-11-21T05:32:35;98826.44;;;2.10;87.36
49759;BME280;35654;46.080;11.118;2022-11-21T05:35:01;98831.03;;;2.10;86.99
49759;BME280;35654;46.080;11.118;2022-11-21T05:37:26;98832.75;;;1.94;87.29
49759;BME280;35654;46.080;11.118;2022-11-21T05:39:51;98827.84;;;1.91;87.88
49759;BME280;35654;46.080;11.118;2022-11-21T05:42:17;98823.28;;;1.92;88.14
49759;BME280;35654;46.080;11.118;2022-11-21T05:45:02;98824.66;;;1.94;87.76
49759;BME280;35654;46.080;11.118;2022-11-21T05:47:28;98812.16;;;1.88;87.45
49759;BME280;35654;46.080;11.118;2022-11-21T05:49:53;98804.47;;;1.75;87.91
49759;BME280;35654;46.080;11.118;2022-11-21T05:52:18;98815.25;;;1.75;88.42
49759;BME280;35654;46.080;11.118;2022-11-21T05:54:44;98829.84;;;1.79;88.24
49759;BME280;35654;46.080;11.118;2022-11-21T05:57:09;98829.34;;;1.82;88.52
49759;BME280;35654;46.080;11.118;2022-11-21T05:59:34;98842.13;;;1.87;88.06
49759;BME280;35654;46.080;11.118;2022-11-21T06:02:00;98826.16;;;1.85;88.66
49759;BME280;35654;46.080;11.118;2022-11-21T06:04:43;98828.91;;;1.90;88.74
49759;BME280;35654;46.080;11.118;2022-11-21T06:07:09;98827.34;;;1.94;88.89
49759;BME280;35654;46.080;11.118;2022-11-21T06:09:34;98828.69;;;1.92;88.44
49759;BME280;35654;46.080;11.118;2022-11-21T06:11:59;98830.00;;;1.89;88.11
49759;BME280;35654;46.080;11.118;2022-11-21T06:14:25;98832.13;;;1.87;88.08
49759;BME280;35654;46.080;11.118;2022-11-21T06:16:50;98826.09;;;1.80;88.68
49759;BME280;35654;46.080;11.118;2022-11-21T06:19:15;98827.94;;;1.74;89.18
49759;BME280;35654;46.080;11.118;2022-11-21T06:21:41;98826.59;;;1.77;89.29
49759;BME280;35654;46.080;11.118;2022-11-21T06:24:07;98843.94;;;1.81;89.08
49759;BME280;35654;46.080;11.118;2022-11-21T06:26:32;98839.88;;;1.79;88.34
49759;BME280;35654;46.080;11.118;2022-11-21T06:28:57;98844.13;;;1.74;88.73
49759;BME280;35654;46.080;11.118;2022-11-21T06:31:25;98841.41;;;1.74;89.13
49759;BME280;35654;46.080;11.118;2022-11-21T06:33:52;98850.41;;;1.80;89.39
49759;BME280;35654;46.080;11.118;2022-11-21T06:36:18;98850.94;;;1.82;88.57
49759;BME280;35654;46.080;11.118;2022-11-21T06:38:44;98861.75;;;1.82;88.92
49759;BME280;35654;46.080;11.118;2022-11-21T06:41:12;98856.00;;;1.95;90.58
49759;BME280;35654;46.080;11.118;2022-11-21T06:43:38;98853.59;;;1.99;90.30
49759;BME280;35654;46.080;11.118;2022-11-21T06:46:04;98879.84;;;2.03;89.76
49759;BME280;35654;46.080;11.118;2022-11-21T06:48:33;98878.75;;;2.04;89.04
49759;BME280;35654;46.080;11.118;2022-11-21T06:51:07;98872.97;;;1.96;88.97
49759;BME280;35654;46.080;11.118;2022-11-21T06:53:33;98888.63;;;1.94;89.48
49759;BME280;35654;46.080;11.118;2022-11-21T06:56:00;98886.97;;;1.93;89.77
49759;BME280;35654;46.080;11.118;2022-11-21T06:58:25;98870.72;;;1.88;89.52
49759;BME280;35654;46.080;11.118;2022-11-21T07:00:51;98891.00;;;1.90;89.68
49759;BME280;35654;46.080;11.118;2022-11-21T07:03:17;98902.31;;;1.87;89.42
49759;BME280;35654;46.080;11.118;2022-11-21T07:05:42;98884.81;;;1.90;89.26
49759;BME280;35654;46.080;11.118;2022-11-21T07:08:08;98881.47;;;1.83;89.46
49759;BME280;35654;46.080;11.118;2022-11-21T07:10:33;98885.00;;;1.83;89.48
49759;BME280;35654;46.080;11.118;2022-11-21T07:12:59;98886.19;;;1.92;89.44
49759;BME280;35654;46.080;11.118;2022-11-21T07:15:44;98891.97;;;2.01;88.82
49759;BME280;35654;46.080;11.118;2022-11-21T07:18:10;98886.63;;;2.06;88.90
49759;BME280;35654;46.080;11.118;2022-11-21T07:20:36;98889.66;;;2.09;88.71
49759;BME280;35654;46.080;11.118;2022-11-21T07:23:01;98881.00;;;2.12;88.57
49759;BME280;35654;46.080;11.118;2022-11-21T07:25:27;98896.44;;;2.12;87.83
49759;BME280;35654;46.080;11.118;2022-11-21T07:27:52;98888.34;;;2.12;87.69
49759;BME280;35654;46.080;11.118;2022-11-21T07:30:17;98880.09;;;2.02;88.07
49759;BME280;35654;46.080;11.118;2022-11-21T07:32:43;98882.84;;;2.07;88.74
49759;BME280;35654;46.080;11.118;2022-11-21T07:35:08;98876.06;;;2.04;88.50
49759;BME280;35654;46.080;11.118;2022-11-21T07:37:37;98873.88;;;2.01;87.74
49759;BME280;35654;46.080;11.118;2022-11-21T07:40:04;98880.97;;;2.07;88.07
49759;BME280;35654;46.080;11.118;2022-11-21T07:42:31;98867.22;;;2.09;87.76
49759;BME280;35654;46.080;11.118;2022-11-21T07:44:57;98863.94;;;2.07;87.44
49759;BME280;35654;46.080;11.118;2022-11-21T07:47:22;98868.09;;;2.14;87.45
49759;BME280;35654;46.080;11.118;2022-11-21T07:49:47;98863.34;;;2.26;86.79
49759;BME280;35654;46.080;11.118;2022-11-21T07:52:13;98861.25;;;2.28;85.88
49759;BME280;35654;46.080;11.118;2022-11-21T07:54:38;98860.56;;;2.43;85.67
49759;BME280;35654;46.080;11.118;2022-11-21T07:57:03;98852.94;;;2.62;84.26
49759;BME280;35654;46.080;11.118;2022-11-21T07:59:29;98842.81;;;2.79;82.70
49759;BME280;35654;46.080;11.118;2022-11-21T08:01:54;98842.38;;;2.92;81.95
49759;BME280;35654;46.080;11.118;2022-11-21T08:04:20;98837.63;;;3.04;81.52
49759;BME280;35654;46.080;11.118;2022-11-21T08:06:45;98842.03;;;3.15;80.62
49759;BME280;35654;46.080;11.118;2022-11-21T08:09:10;98826.31;;;3.12;78.78
49759;BME280;35654;46.080;11.118;2022-11-21T08:11:36;98827.72;;;3.20;79.45
49759;BME280;35654;46.080;11.118;2022-11-21T08:14:02;98829.13;;;3.32;79.48
49759;BME280;35654;46.080;11.118;2022-11-21T08:16:27;98834.50;;;3.22;80.18
49759;BME280;35654;46.080;11.118;2022-11-21T08:18:57;98831.38;;;3.40;79.18
49759;BME280;35654;46.080;11.118;2022-11-21T08:21:22;98838.19;;;3.48;77.81
49759;BME280;35654;46.080;11.118;2022-11-21T08:23:47;98828.50;;;3.57;77.03
49759;BME280;35654;46.080;11.118;2022-11-21T08:26:13;98839.25;;;3.52;77.31
49759;BME280;35654;46.080;11.118;2022-11-21T08:28:38;98839.06;;;3.64;76.80
49759;BME280;35654;46.080;11.118;2022-11-21T08:31:04;98841.31;;;3.77;75.97
49759;BME280;35654;46.080;11.118;2022-11-21T08:33:30;98830.00;;;3.90;75.53
49759;BME280;35654;46.080;11.118;2022-11-21T08:35:55;98828.94;;;4.01;74.82
49759;BME280;35654;46.080;11.118;2022-11-21T08:38:24;98820.31;;;4.19;75.34
49759;BME280;35654;46.080;11.118;2022-11-21T08:40:56;98827.16;;;4.42;73.92
49759;BME280;35654;46.080;11.118;2022-11-21T08:43:40;98815.53;;;4.46;73.66
49759;BME280;35654;46.080;11.118;2022-11-21T08:46:05;98813.34;;;4.58;73.63
49759;BME280;35654;46.080;11.118;2022-11-21T08:48:31;98813.91;;;4.76;72.58
49759;BME280;35654;46.080;11.118;2022-11-21T08:50:56;98812.56;;;4.93;72.12
49759;BME280;35654;46.080;11.118;2022-11-21T08:53:22;98802.81;;;5.02;71.33
49759;BME280;35654;46.080;11.118;2022-11-21T08:55:48;98814.47;;;5.13;70.86
49759;BME280;35654;46.080;11.118;2022-11-21T08:58:13;98796.81;;;5.20;69.77
49759;BME280;35654;46.080;11.118;2022-11-21T09:00:39;98793.28;;;5.15;69.68
49759;BME280;35654;46.080;11.118;2022-11-21T09:03:04;98790.56;;;5.30;69.08
49759;BME280;35654;46.080;11.118;2022-11-21T09:05:31;98777.25;;;5.39;68.42
49759;BME280;35654;46.080;11.118;2022-11-21T09:07:56;98780.16;;;5.47;68.77
49759;BME280;35654;46.080;11.118;2022-11-21T09:10:23;98780.47;;;5.46;68.28
49759;BME280;35654;46.080;11.118;2022-11-21T09:12:48;98774.19;;;5.55;67.82
49759;BME280;35654;46.080;11.118;2022-11-21T09:15:13;98774.94;;;5.71;67.14
49759;BME280;35654;46.080;11.118;2022-11-21T09:18:02;98769.47;;;5.91;66.16
49759;BME280;35654;46.080;11.118;2022-11-21T09:20:28;98770.28;;;5.92;65.96
49759;BME280;35654;46.080;11.118;2022-11-21T09:22:53;98763.16;;;6.06;65.16
49759;BME280;35654;46.080;11.118;2022-11-21T09:25:19;98755.44;;;6.18;64.28
49759;BME280;35654;46.080;11.118;2022-11-21T09:27:44;98751.81;;;6.32;64.14
49759;BME280;35654;46.080;11.118;2022-11-21T09:30:10;98751.94;;;6.51;63.43
49759;BME280;35654;46.080;11.118;2022-11-21T09:32:36;98749.78;;;6.53;62.77
49759;BME280;35654;46.080;11.118;2022-11-21T09:35:01;98756.22;;;6.62;62.79
49759;BME280;35654;46.080;11.118;2022-11-21T09:37:27;98763.53;;;6.67;62.07
49759;BME280;35654;46.080;11.118;2022-11-21T09:39:52;98756.94;;;6.73;61.78
49759;BME280;35654;46.080;11.118;2022-11-21T09:45:02;98749.06;;;7.05;61.02
49759;BME280;35654;46.080;11.118;2022-11-21T09:47:36;98748.31;;;7.23;59.94
49759;BME280;35654;46.080;11.118;2022-11-21T09:50:23;98745.69;;;7.13;58.96
49759;BME280;35654;46.080;11.118;2022-11-21T09:57:56;98744.75;;;7.51;55.91
49759;BME280;35654;46.080;11.118;2022-11-21T10:00:23;98749.03;;;7.81;55.03
49759;BME280;35654;46.080;11.118;2022-11-21T10:02:50;98730.19;;;9.51;50.31
49759;BME280;35654;46.080;11.118;2022-11-21T10:05:16;98708.31;;;13.62;41.53
49759;BME280;35654;46.080;11.118;2022-11-21T10:07:43;98702.91;;;16.52;33.96
49759;BME280;35654;46.080;11.118;2022-11-21T10:10:39;98687.59;;;18.03;31.25
49759;BME280;35654;46.080;11.118;2022-11-21T10:13:37;98682.75;;;19.08;29.55
49759;BME280;35654;46.080;11.118;2022-11-21T10:16:22;98694.19;;;19.45;27.54
49759;BME280;35654;46.080;11.118;2022-11-21T10:24:19;98667.69;;;21.19;25.14
49759;BME280;35654;46.080;11.118;2022-11-21T10:27:04;98660.56;;;21.18;24.24
49759;BME280;35654;46.080;11.118;2022-11-21T10:29:42;98668.41;;;19.26;26.66
49759;BME280;35654;46.080;11.118;2022-11-21T10:32:21;98654.13;;;19.46;26.55
49759;BME280;35654;46.080;11.118;2022-11-21T10:34:50;98662.97;;;20.27;25.54
49759;BME280;35654;46.080;11.118;2022-11-21T10:37:37;98649.38;;;19.69;25.69
49759;BME280;35654;46.080;11.118;2022-11-21T10:42:52;98629.78;;;20.74;24.80
49759;BME280;35654;46.080;11.118;2022-11-21T10:45:19;98623.69;;;21.79;24.15
49759;BME280;35654;46.080;11.118;2022-11-21T10:47:49;98622.03;;;21.75;23.69
49759;BME280;35654;46.080;11.118;2022-11-21T10:50:30;98607.94;;;22.01;23.93
49759;BME280;35654;46.080;11.118;2022-11-21T10:58:47;98598.69;;;20.99;24.08
49759;BME280;35654;46.080;11.118;2022-11-21T11:01:53;98592.25;;;22.54;22.27
49759;BME280;35654;46.080;11.118;2022-11-21T11:04:18;98585.31;;;21.59;22.71
49759;BME280;35654;46.080;11.118;2022-11-21T11:06:45;98577.22;;;22.80;21.98
49759;BME280;35654;46.080;11.118;2022-11-21T11:11:50;98567.09;;;22.33;22.56
49759;BME280;35654;46.080;11.118;2022-11-21T11:14:29;98564.13;;;22.01;22.23
49759;BME280;35654;46.080;11.118;2022-11-21T11:16:55;98564.44;;;22.69;22.13
49759;BME280;35654;46.080;11.118;2022-11-21T11:19:25;98569.38;;;20.71;23.56
49759;BME280;35654;46.080;11.118;2022-11-21T11:21:51;98558.41;;;20.89;24.25
49759;BME280;35654;46.080;11.118;2022-11-21T11:24:25;98560.97;;;19.75;25.10
49759;BME280;35654;46.080;11.118;2022-11-21T11:27:01;98547.44;;;22.05;23.40
49759;BME280;35654;46.080;11.118;2022-11-21T11:29:27;98540.94;;;21.87;23.15
49759;BME280;35654;46.080;11.118;2022-11-21T11:32:11;98536.72;;;18.55;26.49
49759;BME280;35654;46.080;11.118;2022-11-21T11:34:40;98544.00;;;16.30;29.92
49759;BME280;35654;46.080;11.118;2022-11-21T11:40:17;98518.97;;;20.10;26.13
49759;BME280;35654;46.080;11.118;2022-11-21T11:43:12;98513.31;;;21.64;23.80
49759;BME280;35654;46.080;11.118;2022-11-21T11:46:08;98514.25;;;23.14;22.01
49759;BME280;35654;46.080;11.118;2022-11-21T11:49:17;98504.56;;;22.59;21.90
49759;BME280;35654;46.080;11.118;2022-11-21T11:51:51;98504.25;;;22.71;22.00
49759;BME280;35654;46.080;11.118;2022-11-21T11:54:25;98499.00;;;21.08;23.76
49759;BME280;35654;46.080;11.118;2022-11-21T11:56:52;98499.84;;;20.38;24.69
49759;BME280;35654;46.080;11.118;2022-11-21T11:59:30;98497.81;;;21.70;23.72
49759;BME280;35654;46.080;11.118;2022-11-21T12:02:02;98486.41;;;20.84;24.29
49759;BME280;35654;46.080;11.118;2022-11-21T12:04:36;98493.06;;;20.72;24.58
49759;BME280;35654;46.080;11.118;2022-11-21T12:07:20;98476.78;;;21.80;23.41
49759;BME280;35654;46.080;11.118;2022-11-21T12:12:39;98468.69;;;22.54;22.21
49759;BME280;35654;46.080;11.118;2022-11-21T12:15:31;98469.31;;;21.98;23.07
49759;BME280;35654;46.080;11.118;2022-11-21T12:21:32;98465.06;;;22.39;22.71
49759;BME280;35654;46.080;11.118;2022-11-21T12:23:48;98459.34;;;21.90;23.43
49759;BME280;35654;46.080;11.118;2022-11-21T12:29:11;98448.44;;;23.42;21.67
49759;BME280;35654;46.080;11.118;2022-11-21T12:45:30;98420.06;;;22.58;22.58
49759;BME280;35654;46.080;11.118;2022-11-21T12:55:10;98399.75;;;22.51;22.05
49759;BME280;35654;46.080;11.118;2022-11-21T12:57:08;98400.97;;;23.17;20.78
49759;BME280;35654;46.080;11.118;2022-11-21T13:05:04;98377.59;;;19.12;25.42
49759;BME280;35654;46.080;11.118;2022-11-21T13:07:31;98381.66;;;16.55;29.45
49759;BME280;35654;46.080;11.118;2022-11-21T13:09:59;98383.38;;;15.57;31.26
49759;BME280;35654;46.080;11.118;2022-11-21T13:12:46;98387.34;;;14.68;32.77
49759;BME280;35654;46.080;11.118;2022-11-21T13:19:02;98387.84;;;14.00;34.45
49759;BME280;35654;46.080;11.118;2022-11-21T13:21:02;98378.97;;;13.50;35.06
49759;BME280;35654;46.080;11.118;2022-11-21T13:23:37;98381.47;;;13.22;36.16
49759;BME280;35654;46.080;11.118;2022-11-21T13:29:13;98361.63;;;13.82;36.51
49759;BME280;35654;46.080;11.118;2022-11-21T13:31:39;98360.06;;;13.93;36.40
49759;BME280;35654;46.080;11.118;2022-11-21T13:36:56;98353.47;;;16.02;33.58
49759;BME280;35654;46.080;11.118;2022-11-21T13:39:29;98353.16;;;16.85;32.29
49759;BME280;35654;46.080;11.118;2022-11-21T13:41:59;98348.28;;;16.32;32.57
49759;BME280;35654;46.080;11.118;2022-11-21T13:44:43;98349.69;;;15.24;34.46
49759;BME280;35654;46.080;11.118;2022-11-21T13:58:01;98356.25;;;12.50;40.60
49759;BME280;35654;46.080;11.118;2022-11-21T14:00:48;98341.50;;;12.34;40.17
49759;BME280;35654;46.080;11.118;2022-11-21T14:08:34;98319.38;;;11.92;41.18
49759;BME280;35654;46.080;11.118;2022-11-21T14:11:34;98325.59;;;11.63;43.02
49759;BME280;35654;46.080;11.118;2022-11-21T14:14:02;98324.00;;;11.54;43.06
49759;BME280;35654;46.080;11.118;2022-11-21T14:16:38;98317.22;;;11.60;43.07
49759;BME280;35654;46.080;11.118;2022-11-21T14:19:12;98314.69;;;11.46;43.95
49759;BME280;35654;46.080;11.118;2022-11-21T14:21:38;98315.06;;;11.10;45.50
49759;BME280;35654;46.080;11.118;2022-11-21T14:24:13;98317.00;;;10.76;47.42
49759;BME280;35654;46.080;11.118;2022-11-21T14:26:43;98310.34;;;10.34;49.15
49759;BME280;35654;46.080;11.118;2022-11-21T14:29:26;98314.72;;;10.04;50.11
49759;BME280;35654;46.080;11.118;2022-11-21T14:31:52;98314.88;;;9.99;49.70
49759;BME280;35654;46.080;11.118;2022-11-21T14:34:29;98310.91;;;10.14;49.77
49759;BME280;35654;46.080;11.118;2022-11-21T14:36:57;98314.00;;;10.21;49.35
49759;BME280;35654;46.080;11.118;2022-11-21T14:39:25;98321.66;;;10.02;49.87
49759;BME280;35654;46.080;11.118;2022-11-21T14:41:53;98319.00;;;9.79;50.80
49759;BME280;35654;46.080;11.118;2022-11-21T14:44:21;98308.16;;;9.66;51.54